D/T METAR WX W/DIR W/SPE G/SPE TEMP DEWP
18/02/19 09:50 EGEC 180950Z 21017KT 9999 FEW030 07/04 Q1001 SSW (210°) 19.6mph 7°C 4°C
18/02/19 09:20 EGEC 180920Z 20018KT CAVOK 07/04 Q1001 SSW (200°) 20.7mph 7°C 4°C
18/02/19 08:50 EGEC 180850Z 21022KT 9999 FEW030 07/04 Q1001 SSW (210°) 25.3mph 7°C 4°C
18/02/19 08:20 EGEC 180820Z 21024KT 9999 FEW039 07/03 Q1001 SSW (210°) 27.6mph 7°C 3°C
18/02/19 07:50 EGEC 180750Z 21024KT 9999 FEW030 07/03 Q1001 SSW (210°) 27.6mph 7°C 3°C
18/02/19 07:20 EGEC 180720Z 20026G39KT 9999 FEW030 07/03 Q1000 SSW (200°) 29.9mph 44.9mph 7°C 3°C
16/02/19 04:20 EGEC 160420Z 21014KT 9999 FEW015 BKN039 09/06 Q1010 SSW (210°) 16.1mph 9°C 6°C
16/02/19 03:20 EGEC 160320Z 20010KT 9999 FEW015 BKN035 10/06 Q1010 SSW (200°) 11.5mph 10°C 6°C
16/02/19 02:50 EGEC 160250Z 20011KT 9999 FEW015 BKN032 10/06 Q1011 SSW (200°) 12.7mph 10°C 6°C
16/02/19 02:20 EGEC 160220Z 21012KT 9999 FEW015 BKN032 10/07 Q1011 SSW (210°) 13.8mph 10°C 7°C
16/02/19 01:50 EGEC 160150Z 20018KT 9999 FEW015 BKN032 11/06 Q1011 SSW (200°) 20.7mph 11°C 6°C
16/02/19 01:20 EGEC 160120Z 18013KT 9999 FEW020 11/07 Q1011 S (180°) 15.0mph 11°C 7°C
15/02/19 17:50 EGEC 151750Z 16024KT 7000 FEW007 09/08 Q1012 SSE (160°) 27.6mph 9°C 8°C
15/02/19 17:20 EGEC 151720Z 16023KT 7000 FEW009 09/08 Q1012 SSE (160°) 26.5mph 9°C 8°C
15/02/19 16:50 EGEC 151650Z 16024KT 6000 SCT008 09/08 Q1013 SSE (160°) 27.6mph 9°C 8°C
15/02/19 16:20 EGEC 151620Z 16020KT 7000 BKN008 09/08 Q1013 SSE (160°) 23.0mph 9°C 8°C
15/02/19 15:50 EGEC 151550Z 15015KT 7000 BKN008 SCT015 09/08 Q1014 SSE (150°) 17.3mph 9°C 8°C
15/02/19 15:20 EGEC 151520Z 15015KT 8000 BKN009 09/08 Q1014 SSE (150°) 17.3mph 9°C 8°C
15/02/19 14:50 EGEC 151450Z 16016KT 7000 BKN009 BKN020 09/08 Q1015 SSE (160°) 18.4mph 9°C 8°C
15/02/19 14:20 EGEC 151420Z 16025KT 7000 BKN009 09/08 Q1014 SSE (160°) 28.8mph 9°C 8°C
15/02/19 13:50 EGEC 151350Z 15024KT 7000 BKN009 09/08 Q1015 SSE (150°) 27.6mph 9°C 8°C
15/02/19 13:20 EGEC 151320Z 16026G36KT 7000 BKN008 09/08 Q1015 SSE (160°) 29.9mph 41.4mph 9°C 8°C
15/02/19 12:50 EGEC 151250Z 16023KT 6000 BKN008 09/08 Q1016 SSE (160°) 26.5mph 9°C 8°C
15/02/19 12:20 EGEC 151220Z 15017KT 6000 OVC008 09/08 Q1016 SSE (150°) 19.6mph 9°C 8°C
15/02/19 11:50 EGEC 151150Z 15018KT 6000 BKN009 09/07 Q1017 SSE (150°) 20.7mph 9°C 7°C
15/02/19 11:20 EGEC 151120Z 14020KT 7000 BKN009 09/07 Q1017 SE (140°) 23.0mph 9°C 7°C
15/02/19 10:50 EGEC 151050Z 15021KT 8000 BKN010 09/07 Q1018 SSE (150°) 24.2mph 9°C 7°C
15/02/19 10:20 EGEC 151020Z 16028KT 8000 SCT009 09/07 Q1017 SSE (160°) 32.2mph 9°C 7°C
15/02/19 09:50 EGEC 150950Z 16030G40KT 9000 FEW012 09/07 Q1017 SSE (160°) 34.5mph 46.0mph 9°C 7°C
15/02/19 09:20 EGEC 150920Z 15027G37KT 9999 BKN011 08/06 Q1017 SSE (150°) 31.1mph 42.6mph 8°C 6°C
15/02/19 08:50 EGEC 150850Z 12014KT 9999 BKN011 08/06 Q1018 ESE (120°) 16.1mph 8°C 6°C
15/02/19 08:20 EGEC 150820Z 11012G24KT 9999 BKN011 08/06 Q1018 ESE (110°) 13.8mph 27.6mph 8°C 6°C
15/02/19 07:50 EGEC 150750Z 13016G26KT 9999 BKN011 08/06 Q1018 SE (130°) 18.4mph 29.9mph 8°C 6°C
14/02/19 17:20 EGEC 141720Z 10016KT 9999 BKN011 09/07 Q1023 E (100°) 18.4mph 9°C 7°C
14/02/19 16:50 EGEC 141650Z 10016G26KT 9999 OVC011 09/07 Q1024 E (100°) 18.4mph 29.9mph 9°C 7°C
14/02/19 16:20 EGEC 141620Z 13018KT 9999 BKN011 09/07 Q1023 SE (130°) 20.7mph 9°C 7°C
14/02/19 15:50 EGEC 141550Z 14022KT 9999 SCT010 SCT028 09/07 Q1024 SE (140°) 25.3mph 9°C 7°C
14/02/19 15:20 EGEC 141520Z 14025KT 9999 SCT012 09/07 Q1023 SE (140°) 28.8mph 9°C 7°C
14/02/19 14:50 EGEC 141450Z 14022KT 9999 SCT012 09/07 Q1024 SE (140°) 25.3mph 9°C 7°C
14/02/19 14:20 EGEC 141420Z 14020KT 9999 SCT012 09/07 Q1024 SE (140°) 23.0mph 9°C 7°C
14/02/19 13:50 EGEC 141350Z 15019KT 9999 SCT015 09/07 Q1024 SSE (150°) 21.9mph 9°C 7°C
14/02/19 13:20 EGEC 141320Z 16021KT 9999 FEW011 SCT023 09/08 Q1024 SSE (160°) 24.2mph 9°C 8°C
14/02/19 12:20 EGEC 141220Z 15014KT 9999 SCT018 SCT027 10/07 Q1025 SSE (150°) 16.1mph 10°C 7°C
14/02/19 11:50 EGEC 141150Z 16016KT 9999 SCT018 10/07 Q1025 SSE (160°) 18.4mph 10°C 7°C
14/02/19 11:20 EGEC 141120Z 16015KT 9999 SCT017 10/07 Q1025 SSE (160°) 17.3mph 10°C 7°C
14/02/19 10:20 EGEC 141020Z 16011KT 9999 SCT018 10/07 Q1025 SSE (160°) 12.7mph 10°C 7°C
14/02/19 09:50 EGEC 140950Z 17015KT 9999 SCT020 SCT038 10/07 Q1024 S (170°) 17.3mph 10°C 7°C
14/02/19 08:50 EGEC 140850Z 17016KT 9999 SCT020 SCT032 09/07 Q1024 S (170°) 18.4mph 9°C 7°C
14/02/19 08:20 EGEC 140820Z 16018KT 9999 SCT033 SCT042 09/07 Q1024 SSE (160°) 20.7mph 9°C 7°C
14/02/19 07:50 EGEC 140750Z 14014KT 9999 SCT032 BKN041 09/07 Q1024 SE (140°) 16.1mph 9°C 7°C
13/02/19 17:20 EGEC 131720Z 13012KT 9999 FEW020 SCT023 09/08 Q1020 SE (130°) 13.8mph 9°C 8°C
13/02/19 16:50 EGEC 131650Z 14012KT 9999 SCT021 10/07 Q1020 SE (140°) 13.8mph 10°C 7°C
13/02/19 16:20 EGEC 131620Z 16011KT 9999 SCT020 SCT030 10/08 Q1021 SSE (160°) 12.7mph 10°C 8°C
13/02/19 15:50 EGEC 131550Z 16009KT 9999 FEW018 SCT020 10/08 Q1021 SSE (160°) 10.4mph 10°C 8°C
13/02/19 15:20 EGEC 131520Z 12009G20KT 9999 SCT014 BKN018 10/08 Q1021 ESE (120°) 10.4mph 23.0mph 10°C 8°C
13/02/19 14:20 EGEC 131420Z 15011KT 9999 FEW022 10/08 Q1020 SSE (150°) 12.7mph 10°C 8°C
13/02/19 13:50 EGEC 131350Z 15014KT 9999 FEW040 09/08 Q1021 SSE (150°) 16.1mph 9°C 8°C
13/02/19 13:20 EGEC 131320Z 16016KT 9999 FEW038 09/08 Q1021 SSE (160°) 18.4mph 9°C 8°C
13/02/19 12:50 EGEC 131250Z 17016KT 9999 FEW038 10/08 Q1021 S (170°) 18.4mph 10°C 8°C
13/02/19 12:20 EGEC 131220Z 17014KT 9999 FEW020 10/08 Q1021 S (170°) 16.1mph 10°C 8°C
13/02/19 11:50 EGEC 131150Z 17017KT 9999 FEW013 09/08 Q1021 S (170°) 19.6mph 9°C 8°C
13/02/19 11:20 EGEC 131120Z 15014KT 9999 SCT013 SCT047 09/08 Q1022 SSE (150°) 16.1mph 9°C 8°C
13/02/19 10:20 EGEC 131020Z 13011KT 9999 SCT014 BKN043 09/08 Q1022 SE (130°) 12.7mph 9°C 8°C
13/02/19 09:50 EGEC 130950Z 15016KT 9999 BKN037 BKN048 09/08 Q1022 SSE (150°) 18.4mph 9°C 8°C
13/02/19 09:20 EGEC 130920Z 16018KT 9999 FEW020 BKN048 09/08 Q1021 SSE (160°) 20.7mph 9°C 8°C
13/02/19 08:50 EGEC 130850Z 16014KT 9999 FEW014 09/08 Q1021 SSE (160°) 16.1mph 9°C 8°C
13/02/19 08:20 EGEC 130820Z 17015KT 9999 -SHRA FEW013 SCT034 BKN048 10/08 Q1022 -SHRA S (170°) 17.3mph 10°C 8°C
13/02/19 07:50 EGEC 130750Z 17016KT 9999 FEW012 BKN048 09/08 Q1021 S (170°) 18.4mph 9°C 8°C
12/02/19 21:50 EGEC 122150Z 14009KT 9999 FEW025 08/08 Q1023 SE (140°) 10.4mph 8°C 8°C
12/02/19 21:20 EGEC 122120Z 13007KT 9999 FEW025 08/07 Q1024 SE (130°) 8.1mph 8°C 7°C
12/02/19 17:20 EGEC 121720Z 23007KT 9999 FEW025 10/08 Q1024 SW (230°) 8.1mph 10°C 8°C
12/02/19 16:50 EGEC 121650Z 25011KT 9999 FEW030 11/08 Q1024 WSW (250°) 12.7mph 11°C 8°C
12/02/19 16:20 EGEC 121620Z 23010KT 9999 SCT029 12/09 Q1023 SW (230°) 11.5mph 12°C 9°C
12/02/19 15:20 EGEC 121520Z 25012KT 9999 FEW023 SCT032 12/09 Q1023 WSW (250°) 13.8mph 12°C 9°C
12/02/19 14:50 EGEC 121450Z 24013KT 9999 FEW023 12/09 Q1022 WSW (240°) 15.0mph 12°C 9°C
12/02/19 14:20 EGEC 121420Z 23018KT 9999 SCT023 12/09 Q1021 SW (230°) 20.7mph 12°C 9°C
12/02/19 13:50 EGEC 121350Z 24016KT 9999 BKN023 13/09 Q1021 WSW (240°) 18.4mph 13°C 9°C
12/02/19 13:20 EGEC 121320Z 23017KT 9999 BKN024 13/09 Q1021 SW (230°) 19.6mph 13°C 9°C
12/02/19 12:50 EGEC 121250Z 23015KT 9999 BKN024 SCT033 12/09 Q1021 SW (230°) 17.3mph 12°C 9°C
12/02/19 12:20 EGEC 121220Z 23015KT 9999 FEW024 BKN033 12/09 Q1021 SW (230°) 17.3mph 12°C 9°C
12/02/19 11:50 EGEC 121150Z 22013KT 9999 FEW027 BKN035 11/08 Q1021 SW (220°) 15.0mph 11°C 8°C
12/02/19 11:20 EGEC 121120Z 21016KT 9999 BKN024 BKN040 11/08 Q1021 SSW (210°) 18.4mph 11°C 8°C
12/02/19 10:50 EGEC 121050Z 19014KT 9999 BKN025 SCT030 11/08 Q1021 S (190°) 16.1mph 11°C 8°C
12/02/19 10:20 EGEC 121020Z 17015KT 9999 BKN026 SCT042 10/08 Q1021 S (170°) 17.3mph 10°C 8°C
12/02/19 09:50 EGEC 120950Z 18015KT 9999 SCT039 BKN048 10/08 Q1021 S (180°) 17.3mph 10°C 8°C
12/02/19 09:20 EGEC 120920Z 19015KT 9999 BKN045 10/08 Q1020 S (190°) 17.3mph 10°C 8°C
12/02/19 08:50 EGEC 120850Z 16012KT 9999 FEW018 BKN045 10/08 Q1021 SSE (160°) 13.8mph 10°C 8°C
12/02/19 08:20 EGEC 120820Z 18014KT 9999 FEW018 BKN043 10/07 Q1021 S (180°) 16.1mph 10°C 7°C
12/02/19 07:50 EGEC 120750Z 19014KT 9999 FEW014 BKN036 10/07 Q1021 S (190°) 16.1mph 10°C 7°C
11/02/19 17:20 EGEC 111720Z 16004KT CAVOK 06/04 Q1025 SSE (160°) 4.6mph 6°C 4°C
11/02/19 16:50 EGEC 111650Z 15004KT CAVOK 06/04 Q1025 SSE (150°) 4.6mph 6°C 4°C
11/02/19 16:20 EGEC 111620Z 16006KT CAVOK 06/04 Q1025 SSE (160°) 6.9mph 6°C 4°C
11/02/19 15:50 EGEC 111550Z 16008KT CAVOK 07/04 Q1025 SSE (160°) 9.2mph 7°C 4°C
11/02/19 15:20 EGEC 111520Z 17006KT 9999 FEW025 07/04 Q1025 S (170°) 6.9mph 7°C 4°C
11/02/19 14:20 EGEC 111420Z 25007KT 9999 FEW025 08/04 Q1025 WSW (250°) 8.1mph 8°C 4°C
11/02/19 13:20 EGEC 111320Z 24007KT 9999 FEW025 08/05 Q1025 WSW (240°) 8.1mph 8°C 5°C
11/02/19 12:50 EGEC 111250Z 26007KT 9999 FEW011 08/05 Q1025 W (260°) 8.1mph 8°C 5°C
11/02/19 12:20 EGEC 111220Z 26005KT 9999 FEW025 08/04 Q1025 W (260°) 5.8mph 8°C 4°C
11/02/19 11:50 EGEC 111150Z 26005KT 9999 FEW025 07/04 Q1024 W (260°) 5.8mph 7°C 4°C
11/02/19 11:20 EGEC 111120Z 21004KT 160V250 9999 FEW022 08/05 Q1024 SSW (210°) 4.6mph 8°C 5°C
11/02/19 10:50 EGEC 111050Z 12004KT 9999 FEW020 06/04 Q1024 ESE (120°) 4.6mph 6°C 4°C
11/02/19 10:20 EGEC 111020Z 11004KT 9999 FEW018 05/04 Q1024 ESE (110°) 4.6mph 5°C 4°C
11/02/19 09:50 EGEC 110950Z 11005KT 9999 FEW035 03/02 Q1023 ESE (110°) 5.8mph 3°C 2°C
11/02/19 09:20 EGEC 110920Z 10005KT 9999 FEW035 02/01 Q1023 E (100°) 5.8mph 2°C 1°C
11/02/19 08:50 EGEC 110850Z 10004KT 9999 FEW040 01/00 Q1022 E (100°) 4.6mph 1°C 0°C
11/02/19 08:20 EGEC 110820Z 10004KT 9999 FEW040 00/M00 Q1021 E (100°) 4.6mph 0°C 0°C
11/02/19 07:20 EGEC 110720Z 24004KT CAVOK 01/00 Q1020 WSW (240°) 4.6mph 1°C 0°C
8/02/19 17:20 EGEC 081720Z 22025G35KT 9999 FEW025 08/03 Q0972 SW (220°) 28.8mph 40.3mph 8°C 3°C
8/02/19 16:50 EGEC 081650Z 23025G38KT 9999 SCT043 08/04 Q0972 RESHRA SW (230°) 28.8mph 43.7mph 8°C 4°C
8/02/19 16:20 EGEC 081620Z 23026G36KT 9999 SHRA BKN037 09/04 Q0972 SHRA SW (230°) 29.9mph 41.4mph 9°C 4°C
8/02/19 15:50 EGEC 081550Z 22024KT 9999 FEW033 SCT039 BKN045 09/04 Q0972 SW (220°) 27.6mph 9°C 4°C
8/02/19 15:20 EGEC 081520Z 22027KT 9999 SHRA SCT034 SCT041 BKN048 08/05 Q0972 SHRA SW (220°) 31.1mph 8°C 5°C
8/02/19 14:50 EGEC 081450Z 21023G33KT 9999 SHRA BKN036 SCT048 09/04 Q0971 SHRA SSW (210°) 26.5mph 38.0mph 9°C 4°C
8/02/19 14:20 EGEC 081420Z 21025G36KT 9999 BKN035 BKN045 09/04 Q0971 SSW (210°) 28.8mph 41.4mph 9°C 4°C
8/02/19 13:50 EGEC 081350Z 22026G40KT 9999 SCT033 BKN039 BKN048 09/04 Q0971 SW (220°) 29.9mph 46.0mph 9°C 4°C
8/02/19 13:20 EGEC 081320Z 21030G43KT 9999 BKN032 BKN045 09/04 Q0971 SSW (210°) 34.5mph 49.5mph 9°C 4°C
8/02/19 12:50 EGEC 081250Z 22032G46KT 9999 BKN033 BKN048 09/04 Q0971 SW (220°) 36.8mph 52.9mph 9°C 4°C
8/02/19 12:20 EGEC 081220Z 21034G50KT 9999 FEW035 BKN041 09/05 Q0971 RESHRA SSW (210°) 39.1mph 57.5mph 9°C 5°C
8/02/19 11:50 EGEC 081150Z 20035G45KT 9999 SHRA FEW030 BKN048 09/05 Q0970 SHRA SSW (200°) 40.3mph 51.8mph 9°C 5°C
8/02/19 11:20 EGEC 081120Z 20030G43KT 9999 FEW034 09/05 Q0971 SSW (200°) 34.5mph 49.5mph 9°C 5°C
8/02/19 10:50 EGEC 081050Z 19030G42KT 9999 SCT034 09/05 Q0971 S (190°) 34.5mph 48.3mph 9°C 5°C
8/02/19 10:20 EGEC 081020Z 20033G43KT 9999 SCT041 09/04 Q0971 SSW (200°) 38.0mph 49.5mph 9°C 4°C
8/02/19 09:20 EGEC 080920Z 19023G35KT 9999 FEW009 SCT013 10/07 Q0973 S (190°) 26.5mph 40.3mph 10°C 7°C
8/02/19 08:50 EGEC 080850Z 17026G38KT 9999 FEW009 BKN013 10/09 Q0973 S (170°) 29.9mph 43.7mph 10°C 9°C
8/02/19 08:20 EGEC 080820Z 16025KT 9999 -RA SCT008 BKN015 09/08 Q0973 RERA -RA SSE (160°) 28.8mph 9°C 8°C
8/02/19 07:50 EGEC 080750Z 17027KT 9999 RA BKN008 09/09 Q0974 RA S (170°) 31.1mph 9°C 9°C
7/02/19 17:50 EGEC 071750Z 23017KT 9999 FEW030 06/03 Q0997 SW (230°) 19.6mph 6°C 3°C
7/02/19 17:20 EGEC 071720Z 23016KT 9999 FEW024 06/03 Q0997 SW (230°) 18.4mph 6°C 3°C
7/02/19 16:50 EGEC 071650Z 25017KT 9999 FEW024 SCT042 07/04 Q0997 WSW (250°) 19.6mph 7°C 4°C
7/02/19 16:20 EGEC 071620Z 24018KT 9999 FEW025 SCT046 07/04 Q0998 WSW (240°) 20.7mph 7°C 4°C
7/02/19 15:50 EGEC 071550Z 25019KT 9999 SCT030 07/04 Q0997 WSW (250°) 21.9mph 7°C 4°C
7/02/19 15:20 EGEC 071520Z 25019KT 9999 FEW034 SCT039 07/04 Q0997 WSW (250°) 21.9mph 7°C 4°C
7/02/19 14:50 EGEC 071450Z 25017KT 9999 FEW030 08/04 Q0997 WSW (250°) 19.6mph 8°C 4°C
7/02/19 14:20 EGEC 071420Z 25017KT 9999 FEW030 08/05 Q0997 WSW (250°) 19.6mph 8°C 5°C
7/02/19 13:50 EGEC 071350Z 25016KT 9999 FEW030 08/05 Q0998 WSW (250°) 18.4mph 8°C 5°C
7/02/19 12:50 EGEC 071250Z 26016KT 9999 FEW020 SCT048 08/06 Q0998 W (260°) 18.4mph 8°C 6°C
7/02/19 12:20 EGEC 071220Z 27022KT 9999 SHRA FEW018 SCT024 BKN048 07/05 Q0998 SHRA W (270°) 25.3mph 7°C 5°C
7/02/19 11:50 EGEC 071150Z 25017KT 9999 FEW012 SCT016 BKN023 07/06 Q0997 WSW (250°) 19.6mph 7°C 6°C
7/02/19 11:20 EGEC 071120Z 26013KT 9999 VCSH FEW009 SCT011 BKN030 06/05 Q0997 VCSH W (260°) 15.0mph 6°C 5°C
7/02/19 10:50 EGEC 071050Z 25015KT 9999 FEW011 SCT018 BKN025 08/06 Q0997 WSW (250°) 17.3mph 8°C 6°C
7/02/19 10:20 EGEC 071020Z 30010KT 9999 SCT017 07/05 Q0997 WNW (300°) 11.5mph 7°C 5°C
7/02/19 09:50 EGEC 070950Z 31010KT 9999 FEW016 SCT042 06/05 Q0997 NW (310°) 11.5mph 6°C 5°C
7/02/19 09:20 EGEC 070920Z 30012KT 9999 FEW014 06/04 Q0997 WNW (300°) 13.8mph 6°C 4°C
7/02/19 08:50 EGEC 070850Z 30013KT 9999 FEW013 06/04 Q0996 WNW (300°) 15.0mph 6°C 4°C